Aktualne dane pomiarowe

Uwaga, wersja testowa! Automatyczne pobieranie danych za pomocą narzędzi lub skryptów to umożliwiających jest zabronione.

Dane meteo z obszaru Polski uzyskane na podstawie depesz SYNOP pobieranych co godzinę z NWS. Najedź myszką na symbol przedstawiony w tabeli, aby uzyskać informacje co do jego znaczenia. Prosimy pamiętać, że to testowa wersja strony, która jeszcze nie jest ukończona. Stworzono również jest krótki FAQ dotyczący korzystania z tej podstrony Anomalie temperatury w chwili obecnej odniesione są do okresu referencyjnego 1951-2016. Okres ten będzie później zmieniony na 1981-2010. Kliknij ikonę aby pobrać plik CSV. Kliknij ikonę aby wygenerować mapę synoptyczną dla danego terminu.

Wybierz Datę:    

        

Mirosławiec (12226)

Dane terminowe dla wybranej stacji. Kliknij datę, aby otrzymać dane z tego terminu dla wszystkich stacji.

TemperaturaZachmurzenieWiatrCiśnienieOpadyPogoda
 Data t td wb tx tn tg rh  Nt Nl Cl Cm Ch ws wd g1 g2 wx mslp ppp ch 24h 12h t ww ww w1 w2  
2019-05-25 23:00:00 11.0 7.1 8.6--- 7745.0wxwxwx2wx---1014.0 995.8 -0.4---------
2019-05-25 22:00:00 11.1 6.8 8.5--- 7545.0wxwxwx2wx---1014.5 996.3 0.1---------
2019-05-25 21:00:00 11.1 6.8 8.5--- 7550.0wxwxwx2wx---1014.5 996.3 0.1---------
2019-05-25 20:00:00 11.3 6.8 8.6--- 7450.0wxwxwx1wx---1014.4 996.2 0.0---------
2019-05-25 19:00:00 11.8 6.5 8.6--- 7050.0wxwxwx1wx---1014.4 996.2 -0.1---------
2019-05-25 18:00:00 12.2 6.9 9.0--- 7050.0wxwxwx5wx---1014.4 996.3 -0.1---------
2019-05-25 17:00:00 13.0 7.2 9.5--- 6845.0wxwxwx4wx---1014.3 996.2 -0.1---------
2019-05-25 16:00:00 13.4 7.2 9.7--- 6645.0wxwxwx4wx---1014.4 996.3 0.0---------
2019-05-25 15:00:00 13.4 7.0 9.6--- 6545.0wxwxwx5wx---1014.5 996.4 0.3---------
2019-05-25 14:00:00 14.0 6.6 9.7--- 6155.0wxwxwx6wx---1014.3 996.3 0.2---------
2019-05-25 13:00:00 13.9 7.0 9.9--- 6355.0wxwxwx5wx---1014.3 996.3 0.3---------
2019-05-25 12:00:00 14.0 6.9 9.9--- 6255.0wxwxwx5wx---1014.1 996.1 0.2---------
2019-05-25 11:00:00 13.7 6.1 9.4--- 6055.0wxwxwx5wx---1014.1 996.1 0.7---------
2019-05-25 10:00:00 14.0 6.9 9.9--- 6255.0wxwxwx4wx---1014.0 996.0 1.0---------
2019-05-25 09:00:00 12.8 6.2 9.0--- 6460.0wxwxwx6wx---1014.0 995.9 1.3---------
2019-05-25 08:00:00 12.2 5.4 8.3--- 6360.0wxwxwx7wx---1013.5 995.4 1.2---------
2019-05-25 07:00:00 12.1 6.4 8.7--- 6855.0wxwxwx7wx---1013.1 995.0 1.2---------
2019-05-25 06:00:00 11.8 7.1 8.9--- 7310.0wxwxwx5wx---1012.7 994.6 1.0---------
2019-05-25 05:00:00 11.2 9.1 9.8--- 8710.0wxwxwx4wx---1012.3 994.2 0.9---------
2019-05-25 04:00:00 9.3 8.2 8.5--- 9310.0wxwxwx2wx---1012.1 993.8 0.6---------
2019-05-25 03:00:00 7.8 6.9 7.1--- 9410.0wx-wx3wx---1012.0 993.6 0.5---------
2019-05-25 02:00:00 8.9 7.2 7.7--- 8910.0wx-wx3wx---1011.6 993.3 0.4---------
2019-05-25 01:00:00 9.1 6.7 7.5--- 8510.0wx-wxwx3wx---1011.5 993.2 0.0---------
2019-05-25 00:00:00 10.6 6.2 7.9--- 7410.0wx-wx1----1011.3 993.1 -0.1---------
2019-05-24 23:00:00 12.8 5.7 8.7--- 6210.0wx-wx2wx---1011.0 993.0 -0.2---------
2019-05-24 22:00:00 11.6 5.7 8.2--- 6710.0wx-wx2wx---1011.3 993.2 -0.3---------
2019-05-24 21:00:00 11.6 6.3 8.4--- 7010.0wx-wx2wx---1011.3 993.2 -0.2---------
2019-05-24 20:00:00 14.8 5.6 9.7--- 5410.0wx-wx2wx---1011.1 993.2 -0.4---------
2019-05-24 19:00:00 16.8 5.8 10.7--- 4810.0wx-wx2wx---1011.3 993.5 -0.5---------
2019-05-24 18:00:00 19.1 6.6 12.2--- 4410.0wx-wx2wx---1011.0 993.4 -1.3---------
2019-05-24 17:00:00 19.4 5.8 12.0--- 4110.0wx-wx3wx---1011.3 993.7 -1.3---------
2019-05-24 16:00:00 19.3 4.7 11.5--- 3810.0wx-wx3wx---1011.6 994.0 -1.4---------
2019-05-24 15:00:00 19.3 5.0 11.6--- 3910.0wxwxwxwx3wx---1012.4 994.7 -1.1---------
2019-05-24 14:00:00 19.3 4.7 11.5--- 3810.0wxwxwxwx3wx---1012.7 995.0 -1.2---------
2019-05-24 13:00:00 19.4 5.1 11.7--- 3910.0wxwxwxwx3wx---1013.1 995.4 -1.4---------
2019-05-24 12:00:00 18.5 6.4 11.8--- 4510.0wxwxwxwx3wx---1013.5 995.8 -1.4---------
2019-05-24 11:00:00 19.3 5.8 11.9--- 4110.0wxwxwxwx3wx---1013.9 996.2 -1.2---------
2019-05-24 10:00:00 19.0 5.5 11.7--- 4110.0wxwxwxwx3wx---1014.5 996.8 -0.8---------
2019-05-24 09:00:00 17.9 7.4 11.9--- 5010.0wxwxwxwx3wx---1015.0 997.2 -0.7---------
2019-05-24 08:00:00 17.2 7.0 11.4--- 5110.0wx-wx2wx---1015.2 997.4 -0.6---------
2019-05-24 07:00:00 15.8 7.8 11.1--- 5910.0wx-wx3wx---1015.5 997.6 -0.2---------
2019-05-24 06:00:00 13.1 7.1 9.5--- 6710.0wx-wx2wx---1015.9 997.8 -0.3---------
2019-05-24 05:00:00 7.3 6.2 6.5--- 9310.0wx-wx1wx---1016.4 998.0 -0.2---------
2019-05-24 04:00:00 4.3 3.7 3.8--- 9610.0wx-wx1wx---1016.5 997.9 -0.6---------
2019-05-24 03:00:00 4.1 3.7 3.7--- 9710.0wx-wx1wx---1016.7 998.1 -0.5---------
2019-05-24 02:00:00 4.3 3.9 3.9--- 9710.0wx-wx1wx---1016.8 998.2 -0.5---------
2019-05-24 01:00:00 4.6 4.2 4.2--- 9710.0wx-1wx---1017.1 998.5 -0.4---------
2019-05-24 00:00:00 4.8 4.4 4.4--- 9710.0wx-0----1017.2 998.6 -0.5---------
2.4 ms

 

Print Friendly, PDF & Email